sensor_id;sensor_type;location;lat;lon;timestamp;temperature;humidity
15815;DHT22;8008;50.024;8.172;2024-01-30T04:02:36;1.70;99.90
15815;DHT22;8008;50.024;8.172;2024-01-30T04:05:05;1.80;99.90
15815;DHT22;8008;50.024;8.172;2024-01-30T04:07:33;1.80;99.90
15815;DHT22;8008;50.024;8.172;2024-01-30T04:10:01;1.80;99.90
15815;DHT22;8008;50.024;8.172;2024-01-30T04:12:32;1.80;99.90
15815;DHT22;8008;50.024;8.172;2024-01-30T04:15:00;1.90;99.90
15815;DHT22;8008;50.024;8.172;2024-01-30T04:17:28;2.00;99.90
15815;DHT22;8008;50.024;8.172;2024-01-30T04:19:57;2.00;99.90
15815;DHT22;8008;50.024;8.172;2024-01-30T04:22:26;1.90;99.90
15815;DHT22;8008;50.024;8.172;2024-01-30T04:24:54;1.90;99.90
15815;DHT22;8008;50.024;8.172;2024-01-30T04:27:22;2.00;99.90
15815;DHT22;8008;50.024;8.172;2024-01-30T04:29:49;2.10;99.90
15815;DHT22;8008;50.024;8.172;2024-01-30T04:32:17;2.20;99.90
15815;DHT22;8008;50.024;8.172;2024-01-30T04:34:45;2.20;99.90
15815;DHT22;8008;50.024;8.172;2024-01-30T04:37:15;2.30;99.90
15815;DHT22;8008;50.024;8.172;2024-01-30T04:39:43;2.20;99.90
15815;DHT22;8008;50.024;8.172;2024-01-30T04:42:11;2.20;99.90
15815;DHT22;8008;50.024;8.172;2024-01-30T04:44:39;2.10;99.90
15815;DHT22;8008;50.024;8.172;2024-01-30T04:47:07;2.20;99.90
15815;DHT22;8008;50.024;8.172;2024-01-30T04:49:36;2.10;99.90
15815;DHT22;8008;50.024;8.172;2024-01-30T04:52:05;2.10;99.90
15815;DHT22;8008;50.024;8.172;2024-01-30T04:54:34;2.00;99.90
15815;DHT22;8008;50.024;8.172;2024-01-30T04:57:03;2.00;99.90
15815;DHT22;8008;50.024;8.172;2024-01-30T04:59:32;2.00;99.90
15815;DHT22;8008;50.024;8.172;2024-01-30T05:02:00;1.70;99.90
15815;DHT22;8008;50.024;8.172;2024-01-30T05:04:28;1.70;99.90
15815;DHT22;8008;50.024;8.172;2024-01-30T05:06:56;1.60;99.90
15815;DHT22;8008;50.024;8.172;2024-01-30T05:09:24;1.60;99.90
15815;DHT22;8008;50.024;8.172;2024-01-30T05:11:53;1.70;99.90
15815;DHT22;8008;50.024;8.172;2024-01-30T05:14:21;1.70;99.90
15815;DHT22;8008;50.024;8.172;2024-01-30T05:16:49;1.60;99.90
15815;DHT22;8008;50.024;8.172;2024-01-30T05:19:17;1.70;99.90
15815;DHT22;8008;50.024;8.172;2024-01-30T05:21:45;1.80;99.90
15815;DHT22;8008;50.024;8.172;2024-01-30T05:24:13;1.80;99.90
15815;DHT22;8008;50.024;8.172;2024-01-30T05:26:41;1.60;99.90
15815;DHT22;8008;50.024;8.172;2024-01-30T05:29:10;1.60;99.90
15815;DHT22;8008;50.024;8.172;2024-01-30T05:31:38;1.50;99.90
15815;DHT22;8008;50.024;8.172;2024-01-30T05:34:06;1.50;99.90
15815;DHT22;8008;50.024;8.172;2024-01-30T05:36:35;1.60;99.90
15815;DHT22;8008;50.024;8.172;2024-01-30T05:39:03;1.60;99.90
15815;DHT22;8008;50.024;8.172;2024-01-30T05:41:34;1.60;99.90
15815;DHT22;8008;50.024;8.172;2024-01-30T05:44:03;1.60;99.90
15815;DHT22;8008;50.024;8.172;2024-01-30T05:46:33;1.70;99.90
15815;DHT22;8008;50.024;8.172;2024-01-30T05:49:02;1.70;99.90
15815;DHT22;8008;50.024;8.172;2024-01-30T05:51:30;1.80;99.90
15815;DHT22;8008;50.024;8.172;2024-01-30T05:53:58;1.60;99.90
15815;DHT22;8008;50.024;8.172;2024-01-30T05:56:25;1.60;99.90
15815;DHT22;8008;50.024;8.172;2024-01-30T05:58:53;1.60;99.90
15815;DHT22;8008;50.024;8.172;2024-01-30T06:01:22;1.70;99.90
15815;DHT22;8008;50.024;8.172;2024-01-30T06:03:51;1.80;99.90
15815;DHT22;8008;50.024;8.172;2024-01-30T06:06:19;1.90;99.90
15815;DHT22;8008;50.024;8.172;2024-01-30T06:08:47;2.00;99.90
15815;DHT22;8008;50.024;8.172;2024-01-30T06:11:15;1.90;99.90
15815;DHT22;8008;50.024;8.172;2024-01-30T06:13:43;2.00;99.90
15815;DHT22;8008;50.024;8.172;2024-01-30T06:16:11;1.90;99.90
15815;DHT22;8008;50.024;8.172;2024-01-30T06:18:39;1.80;99.90
15815;DHT22;8008;50.024;8.172;2024-01-30T06:21:09;1.90;99.90
15815;DHT22;8008;50.024;8.172;2024-01-30T06:23:39;1.80;99.90
15815;DHT22;8008;50.024;8.172;2024-01-30T06:26:07;1.90;99.90
15815;DHT22;8008;50.024;8.172;2024-01-30T06:28:35;1.90;99.90
15815;DHT22;8008;50.024;8.172;2024-01-30T06:31:03;2.00;99.90
15815;DHT22;8008;50.024;8.172;2024-01-30T06:33:31;2.10;99.90
15815;DHT22;8008;50.024;8.172;2024-01-30T06:35:59;2.10;99.90
15815;DHT22;8008;50.024;8.172;2024-01-30T06:38:28;2.10;99.90
15815;DHT22;8008;50.024;8.172;2024-01-30T06:40:56;2.20;99.90
15815;DHT22;8008;50.024;8.172;2024-01-30T06:43:24;2.20;99.90
15815;DHT22;8008;50.024;8.172;2024-01-30T06:45:57;2.30;99.90
15815;DHT22;8008;50.024;8.172;2024-01-30T06:48:27;2.30;99.90
15815;DHT22;8008;50.024;8.172;2024-01-30T06:50:55;2.20;99.90
15815;DHT22;8008;50.024;8.172;2024-01-30T06:53:24;2.10;99.90
15815;DHT22;8008;50.024;8.172;2024-01-30T06:55:54;2.10;99.90
15815;DHT22;8008;50.024;8.172;2024-01-30T06:58:24;2.10;99.90
15815;DHT22;8008;50.024;8.172;2024-01-30T07:00:52;2.10;99.90
15815;DHT22;8008;50.024;8.172;2024-01-30T07:03:21;2.20;99.90
15815;DHT22;8008;50.024;8.172;2024-01-30T07:05:50;2.30;99.90
15815;DHT22;8008;50.024;8.172;2024-01-30T07:08:18;2.20;99.90
15815;DHT22;8008;50.024;8.172;2024-01-30T07:10:48;2.20;99.90
15815;DHT22;8008;50.024;8.172;2024-01-30T07:13:17;2.20;99.90
15815;DHT22;8008;50.024;8.172;2024-01-30T07:15:45;2.20;99.90
15815;DHT22;8008;50.024;8.172;2024-01-30T07:18:13;2.20;99.90
15815;DHT22;8008;50.024;8.172;2024-01-30T07:20:42;2.30;99.90
15815;DHT22;8008;50.024;8.172;2024-01-30T07:23:13;2.20;99.90
15815;DHT22;8008;50.024;8.172;2024-01-30T07:25:43;2.20;99.90
15815;DHT22;8008;50.024;8.172;2024-01-30T07:28:14;2.10;99.90
15815;DHT22;8008;50.024;8.172;2024-01-30T07:30:46;2.10;99.90
15815;DHT22;8008;50.024;8.172;2024-01-30T07:33:15;2.10;99.90
15815;DHT22;8008;50.024;8.172;2024-01-30T07:35:44;2.20;99.90
15815;DHT22;8008;50.024;8.172;2024-01-30T07:38:14;2.30;99.90
15815;DHT22;8008;50.024;8.172;2024-01-30T07:40:42;2.20;99.90
15815;DHT22;8008;50.024;8.172;2024-01-30T07:43:10;2.10;99.90
15815;DHT22;8008;50.024;8.172;2024-01-30T07:45:38;2.10;99.90
15815;DHT22;8008;50.024;8.172;2024-01-30T07:48:08;2.10;99.90
15815;DHT22;8008;50.024;8.172;2024-01-30T07:50:36;2.10;99.90
15815;DHT22;8008;50.024;8.172;2024-01-30T07:53:04;2.10;99.90
15815;DHT22;8008;50.024;8.172;2024-01-30T07:55:32;2.10;99.90
15815;DHT22;8008;50.024;8.172;2024-01-30T07:58:00;2.10;99.90
15815;DHT22;8008;50.024;8.172;2024-01-30T08:00:30;2.00;99.90
15815;DHT22;8008;50.024;8.172;2024-01-30T08:02:58;2.00;99.90
15815;DHT22;8008;50.024;8.172;2024-01-30T08:05:28;1.90;99.90
15815;DHT22;8008;50.024;8.172;2024-01-30T08:07:56;1.70;99.90
15815;DHT22;8008;50.024;8.172;2024-01-30T08:10:24;1.80;99.90
15815;DHT22;8008;50.024;8.172;2024-01-30T08:12:53;1.70;99.90
15815;DHT22;8008;50.024;8.172;2024-01-30T08:15:20;1.80;99.90
15815;DHT22;8008;50.024;8.172;2024-01-30T08:17:48;1.80;99.90
15815;DHT22;8008;50.024;8.172;2024-01-30T08:20:16;1.60;99.90
15815;DHT22;8008;50.024;8.172;2024-01-30T08:22:46;1.60;99.90
15815;DHT22;8008;50.024;8.172;2024-01-30T08:25:14;1.60;99.90
15815;DHT22;8008;50.024;8.172;2024-01-30T08:27:42;1.60;99.90
15815;DHT22;8008;50.024;8.172;2024-01-30T08:30:11;1.70;99.90
15815;DHT22;8008;50.024;8.172;2024-01-30T08:32:39;1.60;99.90
15815;DHT22;8008;50.024;8.172;2024-01-30T08:35:07;1.70;99.90
15815;DHT22;8008;50.024;8.172;2024-01-30T08:37:35;1.70;99.90
15815;DHT22;8008;50.024;8.172;2024-01-30T08:40:08;1.70;99.90
15815;DHT22;8008;50.024;8.172;2024-01-30T08:42:36;1.80;99.90
15815;DHT22;8008;50.024;8.172;2024-01-30T08:45:05;1.80;99.90
15815;DHT22;8008;50.024;8.172;2024-01-30T08:47:33;1.80;99.90
15815;DHT22;8008;50.024;8.172;2024-01-30T08:50:01;1.90;99.90
15815;DHT22;8008;50.024;8.172;2024-01-30T08:52:29;2.00;99.90
15815;DHT22;8008;50.024;8.172;2024-01-30T08:54:57;1.90;99.90
15815;DHT22;8008;50.024;8.172;2024-01-30T08:57:27;2.00;99.90
15815;DHT22;8008;50.024;8.172;2024-01-30T08:59:56;1.90;99.90
15815;DHT22;8008;50.024;8.172;2024-01-30T09:02:24;2.00;99.90
15815;DHT22;8008;50.024;8.172;2024-01-30T09:04:52;2.00;99.90
15815;DHT22;8008;50.024;8.172;2024-01-30T09:07:20;2.00;99.90
15815;DHT22;8008;50.024;8.172;2024-01-30T09:09:48;2.20;99.90
15815;DHT22;8008;50.024;8.172;2024-01-30T09:12:16;2.30;99.90
15815;DHT22;8008;50.024;8.172;2024-01-30T09:14:45;2.50;99.90
15815;DHT22;8008;50.024;8.172;2024-01-30T09:17:13;2.50;99.90
15815;DHT22;8008;50.024;8.172;2024-01-30T09:19:41;2.60;99.90
15815;DHT22;8008;50.024;8.172;2024-01-30T09:22:09;2.80;99.90
15815;DHT22;8008;50.024;8.172;2024-01-30T09:24:37;2.80;99.90
15815;DHT22;8008;50.024;8.172;2024-01-30T09:27:05;2.80;99.90
15815;DHT22;8008;50.024;8.172;2024-01-30T09:29:33;2.60;99.90
15815;DHT22;8008;50.024;8.172;2024-01-30T09:32:06;2.50;99.90
15815;DHT22;8008;50.024;8.172;2024-01-30T09:34:35;2.60;99.90
15815;DHT22;8008;50.024;8.172;2024-01-30T09:37:04;2.60;99.90
15815;DHT22;8008;50.024;8.172;2024-01-30T09:39:32;2.60;99.90
15815;DHT22;8008;50.024;8.172;2024-01-30T09:42:05;2.60;99.90
15815;DHT22;8008;50.024;8.172;2024-01-30T09:44:35;2.70;99.90
15815;DHT22;8008;50.024;8.172;2024-01-30T09:47:05;2.70;99.90
15815;DHT22;8008;50.024;8.172;2024-01-30T09:49:33;2.80;99.90
15815;DHT22;8008;50.024;8.172;2024-01-30T09:52:02;2.90;99.90
15815;DHT22;8008;50.024;8.172;2024-01-30T09:54:31;2.90;99.90
15815;DHT22;8008;50.024;8.172;2024-01-30T09:57:03;3.00;99.90
15815;DHT22;8008;50.024;8.172;2024-01-30T09:59:31;3.10;99.90
15815;DHT22;8008;50.024;8.172;2024-01-30T10:02:00;3.00;99.90
15815;DHT22;8008;50.024;8.172;2024-01-30T10:04:32;3.00;99.90
15815;DHT22;8008;50.024;8.172;2024-01-30T10:07:01;2.90;99.90
15815;DHT22;8008;50.024;8.172;2024-01-30T10:09:32;2.90;99.90
15815;DHT22;8008;50.024;8.172;2024-01-30T10:12:01;3.10;99.90
15815;DHT22;8008;50.024;8.172;2024-01-30T10:14:30;3.20;99.90
15815;DHT22;8008;50.024;8.172;2024-01-30T10:16:58;3.30;99.90
15815;DHT22;8008;50.024;8.172;2024-01-30T10:19:26;3.30;99.90
15815;DHT22;8008;50.024;8.172;2024-01-30T10:21:55;3.50;99.90
15815;DHT22;8008;50.024;8.172;2024-01-30T10:24:24;3.60;99.90
15815;DHT22;8008;50.024;8.172;2024-01-30T10:26:53;3.70;99.90
15815;DHT22;8008;50.024;8.172;2024-01-30T10:29:21;3.70;99.90
15815;DHT22;8008;50.024;8.172;2024-01-30T10:31:58;3.60;99.90
15815;DHT22;8008;50.024;8.172;2024-01-30T10:34:26;3.70;99.90
15815;DHT22;8008;50.024;8.172;2024-01-30T10:37:00;3.80;99.90
15815;DHT22;8008;50.024;8.172;2024-01-30T10:39:38;3.90;99.90
15815;DHT22;8008;50.024;8.172;2024-01-30T10:42:07;4.10;99.90
15815;DHT22;8008;50.024;8.172;2024-01-30T10:44:44;3.90;99.90
15815;DHT22;8008;50.024;8.172;2024-01-30T10:47:20;4.00;99.90
15815;DHT22;8008;50.024;8.172;2024-01-30T10:49:51;4.10;99.90
15815;DHT22;8008;50.024;8.172;2024-01-30T10:52:23;4.10;99.90
15815;DHT22;8008;50.024;8.172;2024-01-30T10:54:53;4.10;99.90
15815;DHT22;8008;50.024;8.172;2024-01-30T10:57:23;4.10;99.90
15815;DHT22;8008;50.024;8.172;2024-01-30T10:59:52;4.10;99.90
15815;DHT22;8008;50.024;8.172;2024-01-30T11:02:23;4.20;99.90
15815;DHT22;8008;50.024;8.172;2024-01-30T11:04:55;4.30;99.90
15815;DHT22;8008;50.024;8.172;2024-01-30T11:07:28;4.40;99.90
15815;DHT22;8008;50.024;8.172;2024-01-30T11:10:01;4.60;99.90
15815;DHT22;8008;50.024;8.172;2024-01-30T11:12:31;4.80;99.90
15815;DHT22;8008;50.024;8.172;2024-01-30T11:15:04;4.80;99.90
15815;DHT22;8008;50.024;8.172;2024-01-30T11:17:42;4.80;99.90
15815;DHT22;8008;50.024;8.172;2024-01-30T11:20:11;4.90;99.90
15815;DHT22;8008;50.024;8.172;2024-01-30T11:22:45;5.00;99.90
15815;DHT22;8008;50.024;8.172;2024-01-30T11:25:14;5.20;99.90
15815;DHT22;8008;50.024;8.172;2024-01-30T11:27:42;5.20;99.90
15815;DHT22;8008;50.024;8.172;2024-01-30T11:30:20;5.20;99.90
15815;DHT22;8008;50.024;8.172;2024-01-30T11:32:58;5.30;99.90
15815;DHT22;8008;50.024;8.172;2024-01-30T11:35:27;5.30;99.90
15815;DHT22;8008;50.024;8.172;2024-01-30T11:37:59;5.40;99.90
15815;DHT22;8008;50.024;8.172;2024-01-30T11:40:28;5.40;99.90
15815;DHT22;8008;50.024;8.172;2024-01-30T11:42:57;5.40;99.90
15815;DHT22;8008;50.024;8.172;2024-01-30T11:45:26;5.40;99.90
15815;DHT22;8008;50.024;8.172;2024-01-30T11:47:55;5.40;99.90
15815;DHT22;8008;50.024;8.172;2024-01-30T11:50:24;5.60;99.90
15815;DHT22;8008;50.024;8.172;2024-01-30T11:52:53;5.70;99.90
15815;DHT22;8008;50.024;8.172;2024-01-30T11:55:23;5.70;99.90
15815;DHT22;8008;50.024;8.172;2024-01-30T11:57:59;5.70;99.90
15815;DHT22;8008;50.024;8.172;2024-01-30T12:00:27;5.70;99.90
15815;DHT22;8008;50.024;8.172;2024-01-30T12:02:56;5.70;99.90
15815;DHT22;8008;50.024;8.172;2024-01-30T12:05:26;5.80;99.90
15815;DHT22;8008;50.024;8.172;2024-01-30T12:07:54;5.90;99.90
15815;DHT22;8008;50.024;8.172;2024-01-30T12:10:27;5.90;99.90
15815;DHT22;8008;50.024;8.172;2024-01-30T12:12:55;6.00;99.90
15815;DHT22;8008;50.024;8.172;2024-01-30T12:15:25;6.10;99.90
15815;DHT22;8008;50.024;8.172;2024-01-30T12:18:04;6.30;99.90
15815;DHT22;8008;50.024;8.172;2024-01-30T12:20:33;6.50;99.90
15815;DHT22;8008;50.024;8.172;2024-01-30T12:23:01;6.60;99.90
15815;DHT22;8008;50.024;8.172;2024-01-30T12:25:31;6.70;99.90
15815;DHT22;8008;50.024;8.172;2024-01-30T12:27:59;6.90;99.90
15815;DHT22;8008;50.024;8.172;2024-01-30T12:30:27;7.00;99.90
15815;DHT22;8008;50.024;8.172;2024-01-30T12:32:56;7.10;99.90
15815;DHT22;8008;50.024;8.172;2024-01-30T12:35:24;7.10;99.90
15815;DHT22;8008;50.024;8.172;2024-01-30T12:37:55;7.20;99.90
15815;DHT22;8008;50.024;8.172;2024-01-30T12:40:24;7.20;99.90
15815;DHT22;8008;50.024;8.172;2024-01-30T12:42:54;7.30;99.90
15815;DHT22;8008;50.024;8.172;2024-01-30T12:45:22;7.40;99.90
15815;DHT22;8008;50.024;8.172;2024-01-30T12:47:50;7.40;99.90
15815;DHT22;8008;50.024;8.172;2024-01-30T12:50:19;7.50;99.90
15815;DHT22;8008;50.024;8.172;2024-01-30T12:52:47;7.50;99.90
15815;DHT22;8008;50.024;8.172;2024-01-30T12:55:16;7.50;99.90
15815;DHT22;8008;50.024;8.172;2024-01-30T12:57:45;7.60;99.90
15815;DHT22;8008;50.024;8.172;2024-01-30T13:00:15;7.60;99.90
15815;DHT22;8008;50.024;8.172;2024-01-30T13:02:44;7.60;99.90
15815;DHT22;8008;50.024;8.172;2024-01-30T13:05:12;7.60;99.90
15815;DHT22;8008;50.024;8.172;2024-01-30T13:07:41;7.60;99.90
15815;DHT22;8008;50.024;8.172;2024-01-30T13:10:09;7.60;99.90
15815;DHT22;8008;50.024;8.172;2024-01-30T13:12:38;7.70;99.90
15815;DHT22;8008;50.024;8.172;2024-01-30T13:15:06;7.70;99.90
15815;DHT22;8008;50.024;8.172;2024-01-30T13:17:36;7.80;99.90
15815;DHT22;8008;50.024;8.172;2024-01-30T13:20:06;7.80;99.90
15815;DHT22;8008;50.024;8.172;2024-01-30T13:22:38;7.90;99.90
15815;DHT22;8008;50.024;8.172;2024-01-30T13:25:06;7.90;99.90
15815;DHT22;8008;50.024;8.172;2024-01-30T13:27:35;8.00;99.90
15815;DHT22;8008;50.024;8.172;2024-01-30T13:30:04;8.10;99.90
15815;DHT22;8008;50.024;8.172;2024-01-30T13:32:33;8.10;99.90
15815;DHT22;8008;50.024;8.172;2024-01-30T13:35:03;8.20;99.90
15815;DHT22;8008;50.024;8.172;2024-01-30T13:37:31;8.20;99.90
15815;DHT22;8008;50.024;8.172;2024-01-30T13:39:59;8.20;99.90
15815;DHT22;8008;50.024;8.172;2024-01-30T13:42:31;8.20;99.90
15815;DHT22;8008;50.024;8.172;2024-01-30T13:44:59;8.20;99.90
15815;DHT22;8008;50.024;8.172;2024-01-30T13:47:27;8.10;99.90
15815;DHT22;8008;50.024;8.172;2024-01-30T13:49:55;8.10;99.90
15815;DHT22;8008;50.024;8.172;2024-01-30T13:52:24;8.10;99.90
15815;DHT22;8008;50.024;8.172;2024-01-30T13:55:01;8.00;99.90
15815;DHT22;8008;50.024;8.172;2024-01-30T13:57:29;8.10;99.90
15815;DHT22;8008;50.024;8.172;2024-01-30T14:00:00;8.00;99.90
15815;DHT22;8008;50.024;8.172;2024-01-30T14:02:38;8.00;99.90
15815;DHT22;8008;50.024;8.172;2024-01-30T14:05:07;8.00;99.90
15815;DHT22;8008;50.024;8.172;2024-01-30T14:07:37;7.90;99.90
15815;DHT22;8008;50.024;8.172;2024-01-30T14:10:07;7.90;99.90
15815;DHT22;8008;50.024;8.172;2024-01-30T14:12:39;7.90;99.90
15815;DHT22;8008;50.024;8.172;2024-01-30T14:15:08;7.90;99.90
15815;DHT22;8008;50.024;8.172;2024-01-30T14:17:53;8.00;99.90
15815;DHT22;8008;50.024;8.172;2024-01-30T14:20:21;7.90;99.90
15815;DHT22;8008;50.024;8.172;2024-01-30T14:22:50;7.90;99.90
15815;DHT22;8008;50.024;8.172;2024-01-30T14:25:20;7.90;99.90
15815;DHT22;8008;50.024;8.172;2024-01-30T14:27:48;7.90;99.90
15815;DHT22;8008;50.024;8.172;2024-01-30T14:30:17;7.90;99.90
15815;DHT22;8008;50.024;8.172;2024-01-30T14:32:45;7.90;99.90
15815;DHT22;8008;50.024;8.172;2024-01-30T14:35:14;7.90;99.90
15815;DHT22;8008;50.024;8.172;2024-01-30T14:37:43;7.90;99.90
15815;DHT22;8008;50.024;8.172;2024-01-30T14:40:12;7.90;99.90
15815;DHT22;8008;50.024;8.172;2024-01-30T14:42:41;7.90;99.90
15815;DHT22;8008;50.024;8.172;2024-01-30T14:45:09;7.90;99.90
15815;DHT22;8008;50.024;8.172;2024-01-30T14:47:38;7.90;99.90
15815;DHT22;8008;50.024;8.172;2024-01-30T14:50:09;7.90;99.90
15815;DHT22;8008;50.024;8.172;2024-01-30T14:52:37;7.90;99.90
15815;DHT22;8008;50.024;8.172;2024-01-30T14:55:07;7.80;99.90
15815;DHT22;8008;50.024;8.172;2024-01-30T14:57:37;7.80;99.90
15815;DHT22;8008;50.024;8.172;2024-01-30T15:00:07;7.70;99.90
15815;DHT22;8008;50.024;8.172;2024-01-30T15:02:36;7.70;99.90
15815;DHT22;8008;50.024;8.172;2024-01-30T15:05:04;7.70;99.90
15815;DHT22;8008;50.024;8.172;2024-01-30T15:07:32;7.70;99.90
15815;DHT22;8008;50.024;8.172;2024-01-30T15:10:07;7.70;99.90
15815;DHT22;8008;50.024;8.172;2024-01-30T15:12:36;7.70;99.90
15815;DHT22;8008;50.024;8.172;2024-01-30T15:15:06;7.70;99.90
15815;DHT22;8008;50.024;8.172;2024-01-30T15:17:37;7.70;99.90
15815;DHT22;8008;50.024;8.172;2024-01-30T15:20:06;7.70;99.90
15815;DHT22;8008;50.024;8.172;2024-01-30T15:22:35;7.70;99.90
15815;DHT22;8008;50.024;8.172;2024-01-30T15:25:04;7.60;99.90
15815;DHT22;8008;50.024;8.172;2024-01-30T15:27:33;7.60;99.90
15815;DHT22;8008;50.024;8.172;2024-01-30T15:30:02;7.60;99.90
15815;DHT22;8008;50.024;8.172;2024-01-30T15:32:31;7.50;99.90
15815;DHT22;8008;50.024;8.172;2024-01-30T15:35:00;7.50;99.90
15815;DHT22;8008;50.024;8.172;2024-01-30T15:37:31;7.50;99.90
15815;DHT22;8008;50.024;8.172;2024-01-30T15:40:00;7.50;99.90
15815;DHT22;8008;50.024;8.172;2024-01-30T15:42:29;7.40;99.90
15815;DHT22;8008;50.024;8.172;2024-01-30T15:44:57;7.40;99.90
15815;DHT22;8008;50.024;8.172;2024-01-30T15:47:27;7.40;99.90
15815;DHT22;8008;50.024;8.172;2024-01-30T15:49:54;7.40;99.90
15815;DHT22;8008;50.024;8.172;2024-01-30T15:52:23;7.40;99.90
15815;DHT22;8008;50.024;8.172;2024-01-30T15:54:51;7.40;99.90
15815;DHT22;8008;50.024;8.172;2024-01-30T15:57:20;7.40;99.90
15815;DHT22;8008;50.024;8.172;2024-01-30T15:59:48;7.40;99.90
15815;DHT22;8008;50.024;8.172;2024-01-30T16:02:16;7.30;99.90
15815;DHT22;8008;50.024;8.172;2024-01-30T16:04:46;7.30;99.90
15815;DHT22;8008;50.024;8.172;2024-01-30T16:07:16;7.30;99.90
15815;DHT22;8008;50.024;8.172;2024-01-30T16:09:44;7.30;99.90
15815;DHT22;8008;50.024;8.172;2024-01-30T16:12:13;7.30;99.90
15815;DHT22;8008;50.024;8.172;2024-01-30T16:14:41;7.30;99.90
15815;DHT22;8008;50.024;8.172;2024-01-30T16:17:08;7.30;99.90
15815;DHT22;8008;50.024;8.172;2024-01-30T16:19:36;7.30;99.90
15815;DHT22;8008;50.024;8.172;2024-01-30T16:22:06;7.20;99.90
15815;DHT22;8008;50.024;8.172;2024-01-30T16:24:34;7.20;99.90
15815;DHT22;8008;50.024;8.172;2024-01-30T16:27:02;7.20;99.90
15815;DHT22;8008;50.024;8.172;2024-01-30T16:29:31;7.20;99.90
15815;DHT22;8008;50.024;8.172;2024-01-30T16:32:00;7.20;99.90
15815;DHT22;8008;50.024;8.172;2024-01-30T16:34:28;7.20;99.90
15815;DHT22;8008;50.024;8.172;2024-01-30T16:36:57;7.20;99.90
15815;DHT22;8008;50.024;8.172;2024-01-30T16:39:26;7.20;99.90
15815;DHT22;8008;50.024;8.172;2024-01-30T16:41:54;7.10;99.90
15815;DHT22;8008;50.024;8.172;2024-01-30T16:44:22;7.10;99.90
15815;DHT22;8008;50.024;8.172;2024-01-30T16:46:51;7.10;99.90
15815;DHT22;8008;50.024;8.172;2024-01-30T16:49:19;7.20;99.90
15815;DHT22;8008;50.024;8.172;2024-01-30T16:51:47;7.10;99.90
15815;DHT22;8008;50.024;8.172;2024-01-30T16:54:15;7.10;99.90
15815;DHT22;8008;50.024;8.172;2024-01-30T16:56:44;7.10;99.90
15815;DHT22;8008;50.024;8.172;2024-01-30T16:59:15;7.10;99.90
15815;DHT22;8008;50.024;8.172;2024-01-30T17:01:43;7.10;99.90
15815;DHT22;8008;50.024;8.172;2024-01-30T17:04:15;7.10;99.90
15815;DHT22;8008;50.024;8.172;2024-01-30T17:06:44;7.10;99.90
15815;DHT22;8008;50.024;8.172;2024-01-30T17:09:12;7.20;99.90
15815;DHT22;8008;50.024;8.172;2024-01-30T17:11:43;7.10;99.90
15815;DHT22;8008;50.024;8.172;2024-01-30T17:14:12;7.10;99.90
15815;DHT22;8008;50.024;8.172;2024-01-30T17:16:41;7.10;99.90
15815;DHT22;8008;50.024;8.172;2024-01-30T17:19:09;7.00;99.90
15815;DHT22;8008;50.024;8.172;2024-01-30T17:21:37;7.10;99.90
15815;DHT22;8008;50.024;8.172;2024-01-30T17:24:06;7.00;99.90
15815;DHT22;8008;50.024;8.172;2024-01-30T17:26:35;7.00;99.90
15815;DHT22;8008;50.024;8.172;2024-01-30T17:29:04;6.90;99.90
15815;DHT22;8008;50.024;8.172;2024-01-30T17:31:32;6.90;99.90
15815;DHT22;8008;50.024;8.172;2024-01-30T17:34:00;6.90;99.90
15815;DHT22;8008;50.024;8.172;2024-01-30T17:36:29;6.80;99.90
15815;DHT22;8008;50.024;8.172;2024-01-30T17:38:57;6.90;99.90
15815;DHT22;8008;50.024;8.172;2024-01-30T17:41:29;6.90;99.90
15815;DHT22;8008;50.024;8.172;2024-01-30T17:43:58;7.00;99.90
15815;DHT22;8008;50.024;8.172;2024-01-30T17:46:28;7.00;99.90
15815;DHT22;8008;50.024;8.172;2024-01-30T17:48:56;7.00;99.90
15815;DHT22;8008;50.024;8.172;2024-01-30T17:51:24;7.00;99.90
15815;DHT22;8008;50.024;8.172;2024-01-30T17:53:52;7.10;99.90
15815;DHT22;8008;50.024;8.172;2024-01-30T17:56:21;7.10;99.90
15815;DHT22;8008;50.024;8.172;2024-01-30T17:58:49;7.10;99.90
15815;DHT22;8008;50.024;8.172;2024-01-30T18:01:17;7.10;99.90
15815;DHT22;8008;50.024;8.172;2024-01-30T18:03:47;7.10;99.90
15815;DHT22;8008;50.024;8.172;2024-01-30T18:06:17;7.10;99.90
15815;DHT22;8008;50.024;8.172;2024-01-30T18:08:45;7.10;99.90
15815;DHT22;8008;50.024;8.172;2024-01-30T18:11:13;7.00;99.90
15815;DHT22;8008;50.024;8.172;2024-01-30T18:13:42;7.10;99.90
15815;DHT22;8008;50.024;8.172;2024-01-30T18:16:10;7.10;99.90
15815;DHT22;8008;50.024;8.172;2024-01-30T18:18:38;7.10;99.90
15815;DHT22;8008;50.024;8.172;2024-01-30T18:21:07;7.10;99.90
15815;DHT22;8008;50.024;8.172;2024-01-30T18:23:36;7.00;99.90
15815;DHT22;8008;50.024;8.172;2024-01-30T18:26:04;7.00;99.90
15815;DHT22;8008;50.024;8.172;2024-01-30T18:28:32;7.10;99.90
15815;DHT22;8008;50.024;8.172;2024-01-30T18:31:00;7.00;99.90
15815;DHT22;8008;50.024;8.172;2024-01-30T18:33:28;7.10;99.90
15815;DHT22;8008;50.024;8.172;2024-01-30T18:35:56;7.20;99.90
15815;DHT22;8008;50.024;8.172;2024-01-30T18:38:25;7.20;99.90
15815;DHT22;8008;50.024;8.172;2024-01-30T18:40:53;7.20;99.90
15815;DHT22;8008;50.024;8.172;2024-01-30T18:43:21;7.20;99.90
15815;DHT22;8008;50.024;8.172;2024-01-30T18:45:51;7.20;99.90
15815;DHT22;8008;50.024;8.172;2024-01-30T18:48:20;7.10;99.90
15815;DHT22;8008;50.024;8.172;2024-01-30T18:50:48;7.10;99.90
15815;DHT22;8008;50.024;8.172;2024-01-30T18:53:16;7.10;99.90
15815;DHT22;8008;50.024;8.172;2024-01-30T18:55:45;7.10;99.90
15815;DHT22;8008;50.024;8.172;2024-01-30T18:58:14;7.10;99.90
15815;DHT22;8008;50.024;8.172;2024-01-30T19:00:42;7.10;99.90
15815;DHT22;8008;50.024;8.172;2024-01-30T19:03:14;7.10;99.90
15815;DHT22;8008;50.024;8.172;2024-01-30T19:05:43;7.10;99.90
15815;DHT22;8008;50.024;8.172;2024-01-30T19:08:11;7.10;99.90
15815;DHT22;8008;50.024;8.172;2024-01-30T19:10:41;7.10;99.90
15815;DHT22;8008;50.024;8.172;2024-01-30T19:13:11;7.10;99.90
15815;DHT22;8008;50.024;8.172;2024-01-30T19:15:41;7.20;99.90
15815;DHT22;8008;50.024;8.172;2024-01-30T19:18:11;7.10;99.90
15815;DHT22;8008;50.024;8.172;2024-01-30T19:20:39;7.10;99.90
15815;DHT22;8008;50.024;8.172;2024-01-30T19:23:08;7.10;99.90
15815;DHT22;8008;50.024;8.172;2024-01-30T19:25:35;7.10;99.90
15815;DHT22;8008;50.024;8.172;2024-01-30T19:28:07;7.10;99.90
15815;DHT22;8008;50.024;8.172;2024-01-30T19:30:37;7.10;99.90
15815;DHT22;8008;50.024;8.172;2024-01-30T19:33:05;7.00;99.90
15815;DHT22;8008;50.024;8.172;2024-01-30T19:35:34;7.00;99.90
15815;DHT22;8008;50.024;8.172;2024-01-30T19:38:01;7.10;99.90
15815;DHT22;8008;50.024;8.172;2024-01-30T19:40:29;7.10;99.90
15815;DHT22;8008;50.024;8.172;2024-01-30T19:42:58;7.10;99.90
15815;DHT22;8008;50.024;8.172;2024-01-30T19:45:26;7.10;99.90
15815;DHT22;8008;50.024;8.172;2024-01-30T19:47:55;7.20;99.90
15815;DHT22;8008;50.024;8.172;2024-01-30T19:50:23;7.20;99.90
15815;DHT22;8008;50.024;8.172;2024-01-30T19:52:51;7.30;99.90
15815;DHT22;8008;50.024;8.172;2024-01-30T19:55:19;7.30;99.90
15815;DHT22;8008;50.024;8.172;2024-01-30T19:57:49;7.40;99.90
15815;DHT22;8008;50.024;8.172;2024-01-30T20:00:17;7.40;99.90
15815;DHT22;8008;50.024;8.172;2024-01-30T20:02:45;7.40;99.90
15815;DHT22;8008;50.024;8.172;2024-01-30T20:05:14;7.40;99.90
15815;DHT22;8008;50.024;8.172;2024-01-30T20:07:43;7.40;99.90
15815;DHT22;8008;50.024;8.172;2024-01-30T20:10:11;7.50;99.90
15815;DHT22;8008;50.024;8.172;2024-01-30T20:12:40;7.50;99.90
15815;DHT22;8008;50.024;8.172;2024-01-30T20:15:09;7.50;99.90